Deer Lodge (38S)
Deer Lodge, MT
Field Elevation: 4692
Lat: 49°23.27N  Long: 112°45.89W
CTAF/Unicom Freq: 120.0250
   
     For Weather-by-Phone, call 406-846-1177
Weather Advisories
2019-08-25   22:28 Z
Altimeter 30.05" Hg
Wind 280° @ 17 KT
Gusts 24 KT
Visibility 10 SM
Temperature 19° C (66° F)
Dewpoint 3° C (37° F)
Relative Humidity 34%
Density Altitude 6,100 feet
Condensation Altitude 12,700 feet
Wind and Runways
Indicated Runway = 30
Headwind = 16 kt
Crosswind = 6 kt
History
 
 
 
More Info
NOAA Forecast
 
 
About Us
Belfort Instrument
 
 
FAA Disclaimer: The data displayed is for advisory purposes only and is not to be used for flight planning or operations. For official data, please call 406-846-1177 to hear the current automated AWOS voice message.
  METAR 38S 252228Z AUTO 28017G24KT 10 SM 19/03 A3005